Time;durP1;ratioP1;P1;durP2;ratioP2;P2;SDS_P1;SDS_P2;PMS_P1;PMS_P2;Temp;Humidity;BMP_temperature;BMP_pressure;BME280_temperature;BME280_humidity;BME280_pressure;Samples;Min_cycle;Max_cycle;Signal;HPM_P1;HPM_P2
2023/03/16 00:01:46;;;;;;;9.97;4.07;;;-0.60;99.90;;;;;;4138696;28;20468;-75
2023/03/16 00:03:48;;;;;;;8.33;3.60;;;-0.60;99.90;;;;;;4136170;28;20454;-75
2023/03/16 00:05:52;;;;;;;8.27;3.07;;;-0.60;99.90;;;;;;4137345;28;20498;-75
2023/03/16 00:07:55;;;;;;;7.37;3.23;;;-0.70;99.90;;;;;;4137756;28;20448;-73
2023/03/16 00:09:57;;;;;;;8.23;2.70;;;-0.70;99.90;;;;;;4138582;28;20974;-73
2023/03/16 00:12:01;;;;;;;7.70;2.60;;;-0.70;99.90;;;;;;4151341;28;20873;-72
2023/03/16 00:14:05;;;;;;;7.40;2.90;;;-0.70;99.90;;;;;;4143731;28;20985;-73
2023/03/16 00:16:07;;;;;;;6.50;2.37;;;-0.80;99.90;;;;;;4139446;28;20853;-75
2023/03/16 00:18:09;;;;;;;4.17;2.17;;;-0.70;99.90;;;;;;4137722;28;21175;-75
2023/03/16 00:20:12;;;;;;;6.07;2.20;;;-0.80;99.90;;;;;;4138289;28;20483;-75
2023/03/16 00:22:15;;;;;;;8.23;2.10;;;-0.80;99.90;;;;;;4139587;28;20460;-74
2023/03/16 00:24:18;;;;;;;5.43;2.53;;;-0.40;99.90;;;;;;4137720;28;20480;-75
2023/03/16 00:26:19;;;;;;;7.97;3.33;;;-0.80;99.90;;;;;;4136293;28;20492;-74
2023/03/16 00:28:22;;;;;;;5.77;1.80;;;-0.80;99.90;;;;;;4137633;28;20488;-74
2023/03/16 00:30:26;;;;;;;9.53;2.57;;;-0.90;99.90;;;;;;4134390;28;20461;-74
2023/03/16 00:32:32;;;;;;;8.93;2.80;;;-0.90;99.90;;;;;;4139630;28;20450;-74
2023/03/16 00:34:34;;;;;;;5.00;2.50;;;-0.90;99.90;;;;;;4137132;28;20869;-74
2023/03/16 00:36:37;;;;;;;7.17;2.60;;;-0.80;99.90;;;;;;4137275;28;20487;-74
2023/03/16 00:38:44;;;;;;;6.30;2.83;;;-0.90;99.90;;;;;;4153797;28;21034;-74
2023/03/16 00:40:50;;;;;;;9.40;2.53;;;-0.90;99.90;;;;;;4136318;28;20475;-75
2023/03/16 00:42:53;;;;;;;11.03;3.73;;;-0.90;99.90;;;;;;4136887;28;20549;-75
2023/03/16 00:44:56;;;;;;;9.10;3.27;;;-0.90;99.90;;;;;;4134786;28;21027;-73
2023/03/16 00:47:00;;;;;;;9.20;2.67;;;-0.90;99.90;;;;;;4134559;28;20456;-74
2023/03/16 00:49:02;;;;;;;5.90;2.90;;;-0.90;99.90;;;;;;4135914;28;20487;-73
2023/03/16 00:51:06;;;;;;;7.93;3.30;;;-0.90;99.90;;;;;;4135320;28;20527;-74
2023/03/16 00:53:08;;;;;;;6.90;3.17;;;-0.90;99.90;;;;;;4141219;28;20448;-75
2023/03/16 00:55:10;;;;;;;5.53;2.70;;;-0.90;99.90;;;;;;4138107;28;20506;-72
2023/03/16 00:57:13;;;;;;;4.53;2.50;;;-0.80;99.90;;;;;;4136621;28;20963;-75
2023/03/16 00:59:15;;;;;;;7.87;2.90;;;-0.90;99.90;;;;;;4137982;28;20457;-74
2023/03/16 01:01:19;;;;;;;7.43;2.90;;;-0.90;99.90;;;;;;4136791;28;20512;-74
2023/03/16 01:03:22;;;;;;;6.10;2.50;;;-0.90;99.90;;;;;;4150744;28;20450;-75
2023/03/16 01:05:24;;;;;;;4.57;2.70;;;-0.90;99.90;;;;;;4135972;28;20579;-75
2023/03/16 01:07:26;;;;;;;6.80;3.63;;;-0.90;99.90;;;;;;4134884;28;20468;-74
2023/03/16 01:09:28;;;;;;;6.80;2.80;;;-0.90;99.90;;;;;;4136671;28;20459;-75
2023/03/16 01:11:32;;;;;;;5.73;2.40;;;-1.00;99.90;;;;;;4137141;28;20462;-74
2023/03/16 01:13:34;;;;;;;5.13;2.60;;;-0.80;99.90;;;;;;4152046;28;21038;-75
2023/03/16 01:15:36;;;;;;;5.20;2.40;;;-1.00;99.90;;;;;;4150022;28;20454;-74
2023/03/16 01:17:38;;;;;;;3.67;2.13;;;-1.10;99.90;;;;;;4137409;28;20503;-74
2023/03/16 01:19:42;;;;;;;4.87;2.33;;;-1.10;99.90;;;;;;4136296;28;20494;-74
2023/03/16 01:21:44;;;;;;;5.60;3.10;;;-1.10;99.90;;;;;;4135949;28;20456;-74
2023/03/16 01:23:46;;;;;;;5.80;2.50;;;-1.00;99.90;;;;;;4135042;28;20464;-74
2023/03/16 01:25:52;;;;;;;6.90;3.27;;;-1.00;99.90;;;;;;4139073;28;21033;-74
2023/03/16 01:27:56;;;;;;;5.60;3.03;;;-0.90;99.90;;;;;;4140663;28;20459;-74
2023/03/16 01:29:59;;;;;;;7.87;3.03;;;-0.90;99.90;;;;;;4140281;28;20463;-75
2023/03/16 01:32:01;;;;;;;7.37;3.10;;;-0.90;99.90;;;;;;4140614;28;20455;-75
2023/03/16 01:34:03;;;;;;;5.97;3.00;;;-0.90;99.90;;;;;;4141446;28;21193;-74
2023/03/16 01:36:09;;;;;;;6.50;3.10;;;-0.80;99.90;;;;;;4139358;28;21004;-75
2023/03/16 01:38:14;;;;;;;10.53;3.83;;;-0.80;99.90;;;;;;4136531;28;21030;-74
2023/03/16 01:40:16;;;;;;;10.10;3.43;;;-0.70;99.90;;;;;;4140580;28;20533;-74
2023/03/16 01:42:18;;;;;;;8.17;2.97;;;-0.70;99.90;;;;;;4137340;28;20555;-74
2023/03/16 01:44:27;;;;;;;8.07;3.23;;;-0.60;99.90;;;;;;4141521;28;21238;-73
2023/03/16 01:46:29;;;;;;;9.77;3.27;;;-0.60;99.90;;;;;;4141737;28;20492;-74
2023/03/16 01:48:36;;;;;;;11.10;3.63;;;-0.50;99.90;;;;;;4139943;28;20476;-76
2023/03/16 01:50:37;;;;;;;9.97;3.63;;;-0.50;99.90;;;;;;4139505;28;20495;-74
2023/03/16 01:52:41;;;;;;;8.63;3.93;;;-0.50;99.90;;;;;;4137632;28;20551;-75
2023/03/16 01:54:45;;;;;;;8.07;3.53;;;-0.50;99.90;;;;;;4140403;28;20951;-73
2023/03/16 01:56:54;;;;;;;5.90;3.37;;;-0.50;99.90;;;;;;4141670;28;20931;-75
2023/03/16 01:58:59;;;;;;;12.33;3.63;;;-0.50;99.90;;;;;;4138711;28;20518;-75
2023/03/16 02:01:01;;;;;;;12.23;3.90;;;-0.50;99.90;;;;;;4138361;28;20521;-73
2023/03/16 02:03:07;;;;;;;7.60;3.00;;;-0.40;99.90;;;;;;4140730;28;20464;-74
2023/03/16 02:05:14;;;;;;;9.87;3.90;;;-0.40;99.90;;;;;;4138747;28;20820;-74
2023/03/16 02:07:17;;;;;;;8.10;3.63;;;-0.50;99.90;;;;;;4140452;28;20510;-74
2023/03/16 02:09:22;;;;;;;10.90;3.50;;;-0.50;99.90;;;;;;4139976;28;20513;-75
2023/03/16 02:11:25;;;;;;;9.10;3.40;;;-0.50;99.90;;;;;;4139730;28;20565;-74
2023/03/16 02:13:28;;;;;;;7.17;3.10;;;-0.60;99.90;;;;;;4138843;28;20586;-74
2023/03/16 02:15:35;;;;;;;4.90;2.33;;;-0.60;99.90;;;;;;4138594;28;20507;-75
2023/03/16 02:17:39;;;;;;;8.80;3.30;;;-0.60;99.90;;;;;;4137592;28;20498;-74
2023/03/16 02:19:53;;;;;;;10.17;3.30;;;-0.70;99.90;;;;;;4140387;28;20479;-73
2023/03/16 02:22:01;;;;;;;6.63;2.70;;;-0.70;99.90;;;;;;4141552;28;20511;-75
2023/03/16 02:24:04;;;;;;;5.87;2.83;;;-0.70;99.90;;;;;;4139216;28;20475;-74
2023/03/16 02:26:14;;;;;;;5.97;3.00;;;-0.70;99.90;;;;;;4137108;28;20596;-75
2023/03/16 02:28:24;;;;;;;9.00;3.13;;;-0.70;99.90;;;;;;4136948;28;21100;-74
2023/03/16 02:30:28;;;;;;;8.37;2.93;;;-0.70;99.90;;;;;;4141735;28;20499;-74
2023/03/16 02:32:32;;;;;;;7.90;3.03;;;-0.70;99.90;;;;;;4138585;28;20464;-74
2023/03/16 02:34:35;;;;;;;5.43;3.00;;;-0.70;99.90;;;;;;4138629;28;20471;-74
2023/03/16 02:36:38;;;;;;;4.27;2.37;;;-0.80;99.90;;;;;;4136825;28;20491;-74
2023/03/16 02:38:40;;;;;;;8.03;3.00;;;-0.80;99.90;;;;;;4138092;28;20550;-75
2023/03/16 02:40:42;;;;;;;8.20;3.50;;;-0.80;99.90;;;;;;4137719;28;20501;-73
2023/03/16 02:42:53;;;;;;;5.20;2.50;;;-0.80;99.90;;;;;;4139455;28;21127;-74
2023/03/16 02:44:57;;;;;;;6.97;3.10;;;-0.80;99.90;;;;;;4139501;28;20530;-74
2023/03/16 02:47:05;;;;;;;7.13;3.10;;;-0.80;99.90;;;;;;4141279;28;20513;-73
2023/03/16 02:49:11;;;;;;;7.10;2.87;;;-0.80;99.90;;;;;;4138071;28;20837;-74
2023/03/16 02:51:13;;;;;;;5.77;2.90;;;-0.90;99.90;;;;;;4140328;28;20553;-75
2023/03/16 02:53:19;;;;;;;5.30;2.70;;;-0.90;99.90;;;;;;4137935;28;20463;-74
2023/03/16 02:55:24;;;;;;;8.20;3.00;;;-0.90;99.90;;;;;;4139498;28;20516;-75
2023/03/16 02:57:26;;;;;;;8.03;3.27;;;-0.90;99.90;;;;;;4139931;28;21022;-74
2023/03/16 02:59:27;;;;;;;10.30;2.97;;;-1.00;99.90;;;;;;4140900;28;20520;-74
2023/03/16 03:01:30;;;;;;;7.00;2.80;;;-1.00;99.90;;;;;;4138480;28;20546;-74
2023/03/16 03:03:34;;;;;;;4.63;2.53;;;-1.00;99.90;;;;;;4139165;28;20492;-74
2023/03/16 03:05:35;;;;;;;5.37;2.67;;;-1.00;99.90;;;;;;4138857;28;20554;-75
2023/03/16 03:07:38;;;;;;;4.50;2.50;;;-1.00;99.90;;;;;;4139914;28;20498;-74
2023/03/16 03:09:41;;;;;;;6.63;2.70;;;-1.10;99.90;;;;;;4140127;28;20550;-74
2023/03/16 03:11:43;;;;;;;5.57;2.50;;;-1.10;99.90;;;;;;4139428;28;20896;-73
2023/03/16 03:13:45;;;;;;;5.77;2.77;;;-1.10;99.90;;;;;;4138176;28;20500;-75
2023/03/16 03:15:47;;;;;;;4.67;2.37;;;-1.20;99.90;;;;;;4139425;28;20502;-74
2023/03/16 03:17:49;;;;;;;7.90;2.53;;;-1.20;99.90;;;;;;4140883;28;20548;-74
2023/03/16 03:19:55;;;;;;;6.33;2.50;;;-1.10;99.90;;;;;;4138481;28;20571;-72
2023/03/16 03:21:57;;;;;;;5.67;2.67;;;-1.20;99.90;;;;;;4139379;28;20448;-73
2023/03/16 03:23:59;;;;;;;6.00;2.93;;;-1.30;99.90;;;;;;4141418;28;20479;-75
2023/03/16 03:26:01;;;;;;;10.17;3.27;;;-1.30;99.90;;;;;;4138912;28;20524;-75
2023/03/16 03:28:05;;;;;;;7.57;3.40;;;-1.30;99.90;;;;;;4137258;28;20459;-73
2023/03/16 03:30:08;;;;;;;8.80;3.43;;;-1.30;99.90;;;;;;4138517;28;20566;-75
2023/03/16 03:32:10;;;;;;;14.77;3.57;;;-1.30;99.90;;;;;;4138678;28;20444;-74
2023/03/16 03:34:12;;;;;;;9.90;3.50;;;-1.30;99.90;;;;;;4139118;28;20538;-74
2023/03/16 03:36:16;;;;;;;6.73;3.27;;;-1.30;99.90;;;;;;4134370;28;20452;-74
2023/03/16 03:38:18;;;;;;;6.43;3.10;;;-1.30;99.90;;;;;;4139470;28;20458;-73
2023/03/16 03:40:21;;;;;;;6.20;3.47;;;-1.40;99.90;;;;;;4139367;28;20990;-73
2023/03/16 03:42:23;;;;;;;8.27;3.40;;;-1.40;99.90;;;;;;4141046;28;20464;-74
2023/03/16 03:44:25;;;;;;;8.13;3.40;;;-1.40;99.90;;;;;;4144376;28;20446;-74
2023/03/16 03:46:27;;;;;;;8.10;3.50;;;-1.40;99.90;;;;;;4136765;28;21329;-74
2023/03/16 03:48:29;;;;;;;8.37;3.93;;;-1.40;99.90;;;;;;4133518;28;20456;-74
2023/03/16 03:50:32;;;;;;;8.90;3.50;;;-1.40;99.90;;;;;;4136135;28;20483;-74
2023/03/16 03:52:38;;;;;;;12.33;3.30;;;-1.40;99.90;;;;;;4134757;28;20479;-74
2023/03/16 03:54:40;;;;;;;10.93;3.80;;;-1.50;99.90;;;;;;4137635;28;20477;-74
2023/03/16 03:56:45;;;;;;;9.70;3.60;;;-1.50;99.90;;;;;;4138929;28;20953;-74
2023/03/16 03:58:46;;;;;;;9.77;3.43;;;-1.50;99.90;;;;;;4150959;28;20461;-73
2023/03/16 04:00:48;;;;;;;8.70;3.23;;;-1.50;99.90;;;;;;4140296;28;20469;-73
2023/03/16 04:02:51;;;;;;;6.53;2.83;;;-1.50;99.90;;;;;;4136685;28;20985;-73
2023/03/16 04:04:53;;;;;;;6.80;3.43;;;-1.50;99.90;;;;;;4137622;28;20451;-73
2023/03/16 04:06:54;;;;;;;7.77;3.30;;;-1.50;99.90;;;;;;4137988;28;20479;-74
2023/03/16 04:08:58;;;;;;;9.43;3.63;;;-1.60;99.90;;;;;;4139062;28;20499;-73
2023/03/16 04:11:00;;;;;;;8.37;3.17;;;-1.50;99.90;;;;;;4137857;28;20492;-74
2023/03/16 04:13:02;;;;;;;15.23;3.90;;;-1.50;99.90;;;;;;4137353;28;20472;-74
2023/03/16 04:15:05;;;;;;;11.63;4.10;;;-1.40;99.90;;;;;;4139717;28;20446;-74
2023/03/16 04:17:07;;;;;;;7.83;3.67;;;-1.50;99.90;;;;;;4139956;28;20463;-75
2023/03/16 04:19:10;;;;;;;7.83;3.40;;;-1.50;99.90;;;;;;4139272;28;20451;-72
2023/03/16 04:21:15;;;;;;;6.70;3.17;;;-1.60;99.90;;;;;;4139025;28;20475;-71
2023/03/16 04:23:21;;;;;;;8.10;4.10;;;-1.60;99.90;;;;;;4141192;28;20472;-72
2023/03/16 04:25:26;;;;;;;7.63;3.20;;;-1.60;99.90;;;;;;4137315;28;20495;-72
2023/03/16 04:27:28;;;;;;;6.07;3.00;;;-1.60;99.90;;;;;;4139652;28;20490;-72
2023/03/16 04:29:30;;;;;;;9.57;3.70;;;-1.50;99.90;;;;;;4136162;28;21036;-74
2023/03/16 04:31:33;;;;;;;10.80;3.70;;;-1.70;99.90;;;;;;4134748;28;20543;-72
2023/03/16 04:33:35;;;;;;;8.13;3.67;;;-1.30;99.90;;;;;;4136392;28;20472;-72
2023/03/16 04:35:37;;;;;;;14.50;5.10;;;-1.70;99.90;;;;;;4151820;28;20481;-72
2023/03/16 04:37:39;;;;;;;10.77;4.73;;;-1.60;99.90;;;;;;4139497;28;20538;-71
2023/03/16 04:39:41;;;;;;;10.90;4.57;;;-1.70;99.90;;;;;;4137055;28;20968;-72
2023/03/16 04:41:44;;;;;;;7.27;3.77;;;-1.70;99.90;;;;;;4136700;28;20454;-73
2023/03/16 04:43:46;;;;;;;11.03;4.63;;;-1.70;99.90;;;;;;4139782;28;20486;-71
2023/03/16 04:45:49;;;;;;;9.87;4.37;;;-1.70;99.90;;;;;;4139228;28;20443;-76
2023/03/16 04:47:51;;;;;;;8.67;3.70;;;-1.70;99.90;;;;;;4159328;28;20557;-79
2023/03/16 04:49:53;;;;;;;7.37;3.13;;;-1.70;99.90;;;;;;4141014;28;20557;-72
2023/03/16 04:51:55;;;;;;;7.07;3.43;;;-1.70;99.90;;;;;;4146969;28;20455;-74
2023/03/16 04:53:57;;;;;;;11.63;3.87;;;-1.70;99.90;;;;;;4141336;28;20501;-74
2023/03/16 04:55:59;;;;;;;8.03;3.87;;;-1.70;99.90;;;;;;4140096;28;20470;-73
2023/03/16 04:58:05;;;;;;;9.43;4.07;;;-1.70;99.90;;;;;;4139393;28;20443;-73
2023/03/16 05:00:10;;;;;;;8.43;3.70;;;-1.70;99.90;;;;;;4140836;28;20542;-72
2023/03/16 05:02:13;;;;;;;8.27;3.53;;;-1.70;99.90;;;;;;4139668;28;20853;-72
2023/03/16 05:04:18;;;;;;;7.93;3.50;;;-1.70;99.90;;;;;;4146554;28;21323;-72
2023/03/16 05:06:20;;;;;;;9.97;3.90;;;-1.70;99.90;;;;;;4140201;28;21036;-73
2023/03/16 05:08:22;;;;;;;13.20;3.80;;;-1.60;99.90;;;;;;4153743;28;20564;-72
2023/03/16 05:10:24;;;;;;;11.53;3.33;;;-1.70;99.90;;;;;;4160700;28;20494;-73
2023/03/16 05:12:26;;;;;;;7.63;3.50;;;-1.70;99.90;;;;;;4143289;28;20900;-73
2023/03/16 05:14:29;;;;;;;6.83;3.90;;;-1.70;99.90;;;;;;4142763;28;20462;-72
2023/03/16 05:16:32;;;;;;;11.93;4.30;;;-1.60;99.90;;;;;;4133250;28;20845;-74
2023/03/16 05:18:34;;;;;;;10.03;4.80;;;-1.70;99.90;;;;;;4137223;28;20443;-74
2023/03/16 05:20:36;;;;;;;14.27;5.30;;;-1.70;99.90;;;;;;4140132;28;20494;-73
2023/03/16 05:22:40;;;;;;;10.27;4.57;;;-1.90;99.90;;;;;;4140821;28;20455;-74
2023/03/16 05:24:42;;;;;;;9.30;4.33;;;-1.70;99.90;;;;;;4144279;28;20486;-75
2023/03/16 05:26:44;;;;;;;10.50;4.47;;;-1.70;99.90;;;;;;4138245;28;20551;-73
2023/03/16 05:28:46;;;;;;;10.07;4.50;;;-1.70;99.90;;;;;;4134385;28;20578;-73
2023/03/16 05:30:50;;;;;;;12.33;5.00;;;-1.70;99.90;;;;;;4135659;28;20475;-75
2023/03/16 05:32:56;;;;;;;9.53;4.00;;;-1.70;99.90;;;;;;4144731;28;20463;-74
2023/03/16 05:34:58;;;;;;;11.87;4.43;;;-1.70;99.90;;;;;;4148390;28;20929;-74
2023/03/16 05:37:00;;;;;;;10.93;4.10;;;-1.60;99.90;;;;;;4144542;28;20489;-76
2023/03/16 05:39:02;;;;;;;9.07;4.03;;;-1.60;99.90;;;;;;4149086;28;20493;-73
2023/03/16 05:41:04;;;;;;;10.70;3.83;;;-1.60;99.90;;;;;;4147384;28;20529;-72
2023/03/16 05:43:06;;;;;;;8.37;3.90;;;-1.60;99.90;;;;;;4149139;28;20481;-72
2023/03/16 05:45:09;;;;;;;12.27;4.43;;;-1.60;99.90;;;;;;4154220;28;20485;-73
2023/03/16 05:47:13;;;;;;;11.73;5.23;;;-1.60;99.90;;;;;;4147754;28;20581;-73
2023/03/16 05:49:15;;;;;;;12.30;4.93;;;-1.60;99.90;;;;;;4147832;28;20455;-74
2023/03/16 05:51:16;;;;;;;11.57;4.53;;;-1.60;99.90;;;;;;4144723;28;20546;-75
2023/03/16 05:53:19;;;;;;;11.07;4.77;;;-1.60;99.90;;;;;;4144049;28;20502;-75
2023/03/16 05:55:21;;;;;;;13.60;4.43;;;-1.60;99.90;;;;;;4141556;28;20497;-75
2023/03/16 05:57:24;;;;;;;8.97;4.90;;;-1.60;99.90;;;;;;4142578;28;20962;-74
2023/03/16 05:59:26;;;;;;;9.63;4.20;;;-1.60;99.90;;;;;;4139969;28;22016;-73
2023/03/16 06:01:28;;;;;;;9.30;4.20;;;-1.60;99.90;;;;;;4155053;28;20454;-73
2023/03/16 06:03:31;;;;;;;7.20;3.27;;;-1.60;99.90;;;;;;4147707;28;20505;-73
2023/03/16 06:05:35;;;;;;;8.37;3.73;;;-1.70;99.90;;;;;;4145910;28;20515;-76
2023/03/16 06:07:37;;;;;;;13.20;4.87;;;-1.60;99.90;;;;;;4145733;28;20568;-74
2023/03/16 06:09:39;;;;;;;10.30;4.30;;;-1.60;99.90;;;;;;4148514;28;20490;-72
2023/03/16 06:11:41;;;;;;;10.80;4.47;;;-1.60;99.90;;;;;;4147734;28;20455;-73
2023/03/16 06:13:43;;;;;;;10.53;4.40;;;-1.60;99.90;;;;;;4148409;28;20514;-72
2023/03/16 06:15:45;;;;;;;10.63;4.20;;;-1.60;99.90;;;;;;4147559;28;20533;-73
2023/03/16 06:17:47;;;;;;;8.97;4.30;;;-1.50;99.90;;;;;;4153131;28;20526;-73
2023/03/16 06:19:50;;;;;;;7.37;4.30;;;-1.50;99.90;;;;;;4146552;28;20478;-72
2023/03/16 06:21:52;;;;;;;9.80;4.20;;;-1.40;99.90;;;;;;4142787;28;20452;-76
2023/03/16 06:23:54;;;;;;;8.17;4.23;;;-1.40;99.90;;;;;;4148402;28;20457;-73
2023/03/16 06:25:58;;;;;;;7.97;3.70;;;-1.40;99.90;;;;;;4148216;28;20521;-74
2023/03/16 06:28:00;;;;;;;9.50;4.20;;;-1.40;99.90;;;;;;4146743;28;20569;-73
2023/03/16 06:30:02;;;;;;;7.33;4.00;;;-1.40;99.90;;;;;;4147978;28;20474;-74
2023/03/16 06:32:05;;;;;;;8.40;4.30;;;-1.30;99.90;;;;;;4148125;28;20451;-73
2023/03/16 06:34:06;;;;;;;9.47;4.33;;;-1.30;99.90;;;;;;4148354;28;20512;-73
2023/03/16 06:36:10;;;;;;;13.33;4.57;;;-1.30;99.90;;;;;;4148139;28;20489;-72
2023/03/16 06:38:12;;;;;;;8.80;4.10;;;-1.20;99.90;;;;;;4147202;28;20452;-73
2023/03/16 06:40:14;;;;;;;10.93;4.87;;;-1.20;99.90;;;;;;4143432;28;20463;-74
2023/03/16 06:42:16;;;;;;;8.57;4.13;;;-1.20;99.90;;;;;;4150321;28;20631;-74
2023/03/16 06:44:18;;;;;;;14.97;5.07;;;-1.20;99.90;;;;;;4145510;28;20486;-73
2023/03/16 06:46:20;;;;;;;10.03;4.77;;;-1.20;99.90;;;;;;4145050;28;20458;-72
2023/03/16 06:48:22;;;;;;;10.77;4.47;;;-1.20;99.90;;;;;;4147704;28;20855;-73
2023/03/16 06:50:24;;;;;;;11.43;4.60;;;-1.10;99.90;;;;;;4155714;28;20483;-73
2023/03/16 06:52:27;;;;;;;10.83;5.00;;;-1.10;99.90;;;;;;4144292;28;20459;-73
2023/03/16 06:54:31;;;;;;;11.27;4.47;;;-1.10;99.90;;;;;;4139860;28;20539;-74
2023/03/16 06:56:33;;;;;;;10.30;4.30;;;-1.10;99.90;;;;;;4141785;28;20445;-73
2023/03/16 06:58:36;;;;;;;10.97;4.03;;;-1.10;99.90;;;;;;4141185;28;20543;-74
2023/03/16 07:00:38;;;;;;;11.00;5.17;;;0.00;99.90;;;;;;4136875;28;20482;-73
2023/03/16 07:02:41;;;;;;;11.23;3.90;;;-1.00;99.90;;;;;;4139384;28;20485;-73
2023/03/16 07:04:43;;;;;;;14.13;5.20;;;-1.00;99.90;;;;;;4150857;28;20462;-74
2023/03/16 07:06:45;;;;;;;15.20;5.03;;;-0.90;99.90;;;;;;4139950;28;20463;-74
2023/03/16 07:08:48;;;;;;;9.37;4.23;;;-0.90;99.90;;;;;;4154527;28;21098;-73
2023/03/16 07:10:51;;;;;;;9.47;4.10;;;-0.90;99.90;;;;;;4140864;28;20507;-73
2023/03/16 07:12:54;;;;;;;10.73;4.23;;;-0.70;99.90;;;;;;4141308;28;20451;-74
2023/03/16 07:14:55;;;;;;;8.93;4.30;;;-0.80;99.90;;;;;;4138449;28;20475;-73
2023/03/16 07:16:57;;;;;;;9.80;4.10;;;-0.80;99.90;;;;;;4140735;28;20493;-73
2023/03/16 07:19:00;;;;;;;11.47;4.23;;;-0.80;99.90;;;;;;4139094;28;20448;-73
2023/03/16 07:21:02;;;;;;;7.13;3.90;;;-0.80;99.90;;;;;;4141074;28;21024;-73
2023/03/16 07:23:04;;;;;;;9.23;4.03;;;-0.10;99.90;;;;;;4138941;28;20471;-73
2023/03/16 07:25:10;;;;;;;11.30;3.90;;;-1.00;99.90;;;;;;4140124;28;20494;-72
2023/03/16 07:27:12;;;;;;;7.77;3.57;;;-0.60;99.90;;;;;;4138430;28;20472;-73
2023/03/16 07:29:15;;;;;;;10.47;3.80;;;-0.60;99.90;;;;;;4140289;28;20491;-73
2023/03/16 07:31:17;;;;;;;8.30;4.30;;;-0.50;99.90;;;;;;4142901;28;20487;-72
2023/03/16 07:33:19;;;;;;;12.07;4.10;;;-0.50;99.90;;;;;;4140473;28;20463;-72
2023/03/16 07:35:21;;;;;;;8.80;4.00;;;-0.40;99.90;;;;;;4139942;28;20452;-72
2023/03/16 07:37:23;;;;;;;10.00;3.50;;;0.50;99.90;;;;;;4137713;28;20452;-73
2023/03/16 07:39:27;;;;;;;10.07;3.50;;;-0.50;99.90;;;;;;4138931;28;20468;-74
2023/03/16 07:41:30;;;;;;;8.10;3.53;;;-0.40;99.90;;;;;;4134850;28;20461;-73
2023/03/16 07:43:33;;;;;;;9.80;3.90;;;-0.30;99.90;;;;;;4142457;28;20531;-73
2023/03/16 07:45:35;;;;;;;9.47;3.70;;;-0.20;99.90;;;;;;4140583;28;20509;-73
2023/03/16 07:47:37;;;;;;;7.90;3.47;;;-0.20;99.90;;;;;;4141021;28;20499;-73
2023/03/16 07:49:40;;;;;;;11.30;3.67;;;-0.20;99.90;;;;;;4141889;28;20496;-73
2023/03/16 07:51:42;;;;;;;7.87;3.30;;;-0.20;99.90;;;;;;4138727;28;20533;-73
2023/03/16 07:53:44;;;;;;;5.57;3.00;;;-0.10;99.90;;;;;;4136934;28;20488;-74
2023/03/16 07:55:46;;;;;;;9.43;3.27;;;-0.10;99.90;;;;;;4139114;28;20460;-72
2023/03/16 07:57:50;;;;;;;8.57;2.70;;;0.10;99.90;;;;;;4139342;28;20543;-73
2023/03/16 07:59:51;;;;;;;7.20;2.90;;;0.20;99.90;;;;;;4144395;28;20981;-73
2023/03/16 08:01:53;;;;;;;11.63;3.17;;;0.10;99.90;;;;;;4141908;28;20493;-73
2023/03/16 08:03:55;;;;;;;8.23;2.87;;;0.20;99.90;;;;;;4141161;28;20538;-73
2023/03/16 08:05:57;;;;;;;9.80;3.00;;;0.20;99.90;;;;;;4142908;28;20491;-73
2023/03/16 08:08:01;;;;;;;6.63;3.03;;;0.20;99.90;;;;;;4150464;28;20841;-74
2023/03/16 08:10:03;;;;;;;8.53;2.73;;;0.30;99.90;;;;;;4138613;28;20528;-73
2023/03/16 08:12:07;;;;;;;5.30;2.50;;;0.30;99.90;;;;;;4142881;28;20456;-73
2023/03/16 08:14:12;;;;;;;6.67;2.77;;;0.40;99.90;;;;;;4150076;28;20451;-74
2023/03/16 08:16:15;;;;;;;11.70;3.17;;;0.40;99.90;;;;;;4139984;28;20453;-73
2023/03/16 08:18:17;;;;;;;7.60;3.37;;;0.40;99.90;;;;;;4137908;28;21168;-73
2023/03/16 08:20:19;;;;;;;8.07;2.80;;;0.60;99.90;;;;;;4154556;28;20492;-73
2023/03/16 08:22:22;;;;;;;5.77;2.90;;;0.50;99.90;;;;;;4141312;28;21225;-74
2023/03/16 08:24:24;;;;;;;8.10;2.60;;;0.60;99.90;;;;;;4137177;28;20540;-73
2023/03/16 08:26:26;;;;;;;9.60;3.17;;;0.60;99.90;;;;;;4136157;28;20564;-73
2023/03/16 08:28:29;;;;;;;8.80;3.00;;;0.60;99.90;;;;;;4139212;28;20558;-72
2023/03/16 08:30:32;;;;;;;6.20;3.00;;;0.70;99.90;;;;;;4140183;28;20477;-73
2023/03/16 08:32:36;;;;;;;6.37;2.70;;;0.90;99.90;;;;;;4143061;28;21014;-73
2023/03/16 08:34:38;;;;;;;9.63;3.50;;;1.00;99.90;;;;;;4141641;28;20472;-74
2023/03/16 08:36:42;;;;;;;6.57;3.53;;;1.10;99.90;;;;;;4136222;28;20488;-74
2023/03/16 08:38:46;;;;;;;7.73;3.20;;;1.10;99.90;;;;;;4142614;28;20514;-73
2023/03/16 08:40:50;;;;;;;11.50;3.27;;;1.20;99.90;;;;;;4139573;28;20823;-74
2023/03/16 08:42:53;;;;;;;9.33;3.37;;;1.30;99.90;;;;;;4140545;28;20473;-74
2023/03/16 08:44:55;;;;;;;8.77;3.17;;;1.30;99.90;;;;;;4140663;28;20552;-75
2023/03/16 08:46:58;;;;;;;8.03;3.13;;;1.40;99.90;;;;;;4139203;28;20972;-74
2023/03/16 08:49:01;;;;;;;4.10;2.80;;;1.40;99.90;;;;;;4138247;28;20589;-75
2023/03/16 08:51:04;;;;;;;9.90;2.73;;;1.40;99.90;;;;;;4136501;28;20525;-75
2023/03/16 08:53:06;;;;;;;4.50;2.50;;;1.50;99.90;;;;;;4136930;28;20461;-75
2023/03/16 08:55:09;;;;;;;6.17;2.63;;;1.60;99.90;;;;;;4134998;28;20466;-75
2023/03/16 08:57:11;;;;;;;8.73;2.67;;;1.60;99.90;;;;;;4133255;28;20956;-75
2023/03/16 08:59:13;;;;;;;6.90;2.57;;;1.70;99.90;;;;;;4137150;28;21516;-74
2023/03/16 09:01:17;;;;;;;5.17;2.43;;;1.70;99.90;;;;;;4139514;28;20538;-76
2023/03/16 09:03:21;;;;;;;8.33;2.87;;;1.80;99.90;;;;;;4135275;28;20457;-75
2023/03/16 09:05:25;;;;;;;6.13;2.43;;;1.80;99.90;;;;;;4140154;28;21176;-76
2023/03/16 09:07:28;;;;;;;7.90;2.30;;;1.90;99.90;;;;;;4137223;28;20448;-73
2023/03/16 09:09:30;;;;;;;8.53;2.50;;;2.10;99.90;;;;;;4139179;28;20486;-73
2023/03/16 09:11:34;;;;;;;7.53;2.47;;;2.20;99.90;;;;;;4138940;28;20483;-73
2023/03/16 09:13:37;;;;;;;7.77;2.47;;;2.30;99.90;;;;;;4135246;28;20457;-73
2023/03/16 09:15:39;;;;;;;6.50;1.93;;;2.30;99.90;;;;;;4140848;28;20956;-74
2023/03/16 09:17:41;;;;;;;5.80;1.93;;;2.40;99.90;;;;;;4140030;28;20454;-73
2023/03/16 09:19:45;;;;;;;6.70;2.43;;;2.50;99.90;;;;;;4141147;28;20502;-74
2023/03/16 09:21:47;;;;;;;6.17;2.50;;;2.50;99.90;;;;;;4143232;28;20489;-75
2023/03/16 09:23:49;;;;;;;5.57;2.00;;;2.70;99.90;;;;;;4138045;28;20447;-74
2023/03/16 09:25:52;;;;;;;8.27;2.63;;;2.70;99.90;;;;;;4150651;28;20461;-74
2023/03/16 09:27:54;;;;;;;5.37;2.03;;;2.70;99.90;;;;;;4141698;28;20451;-73
2023/03/16 09:29:58;;;;;;;3.53;1.80;;;2.70;99.90;;;;;;4140200;28;20536;-74
2023/03/16 09:32:00;;;;;;;3.60;2.07;;;2.80;99.90;;;;;;4142865;28;21114;-74
2023/03/16 09:34:02;;;;;;;9.53;2.30;;;2.80;99.90;;;;;;4144099;28;20439;-74
2023/03/16 09:36:06;;;;;;;6.13;2.33;;;2.90;99.90;;;;;;4138688;28;20451;-74
2023/03/16 09:38:08;;;;;;;10.17;2.47;;;3.00;99.90;;;;;;4139346;28;20852;-73
2023/03/16 09:40:21;;;;;;;4.57;2.13;;;3.00;99.90;;;;;;4137567;28;20850;-74
2023/03/16 09:42:30;;;;;;;9.47;1.97;;;3.10;99.90;;;;;;4137513;28;20446;-73
2023/03/16 09:44:39;;;;;;;4.57;1.73;;;3.10;99.90;;;;;;4137939;28;20490;-73
2023/03/16 09:46:44;;;;;;;5.33;1.43;;;3.20;99.90;;;;;;4138050;28;20454;-74
2023/03/16 09:48:52;;;;;;;6.87;1.27;;;3.30;99.90;;;;;;4139005;28;20474;-75
2023/03/16 09:50:56;;;;;;;3.93;1.50;;;3.50;99.90;;;;;;4141961;28;21171;-77
2023/03/16 09:53:06;;;;;;;4.30;1.50;;;3.60;99.90;;;;;;4137724;28;21001;-76
2023/03/16 09:55:19;;;;;;;6.17;1.20;;;3.70;99.90;;;;;;4138966;28;20512;-76
2023/03/16 09:57:42;;;;;;;6.50;1.67;;;3.80;99.90;;;;;;4138342;28;20471;-75
2023/03/16 09:59:44;;;;;;;5.47;2.10;;;3.90;99.90;;;;;;4139992;28;20564;-75
2023/03/16 10:02:24;;;;;;;5.63;1.30;;;4.00;99.90;;;;;;4139491;28;20483;-75
2023/03/16 10:04:52;;;;;;;5.77;1.17;;;4.10;99.90;;;;;;4140146;28;20533;-76
2023/03/16 10:07:05;;;;;;;4.27;1.33;;;4.10;99.90;;;;;;4139118;28;20546;-75
2023/03/16 10:09:32;;;;;;;4.63;1.30;;;4.20;99.90;;;;;;4138341;28;20486;-76
2023/03/16 10:11:38;;;;;;;6.07;1.60;;;4.30;99.90;;;;;;4137431;28;20492;-75
2023/03/16 10:13:44;;;;;;;4.20;1.37;;;4.30;99.90;;;;;;4139308;28;20451;-73
2023/03/16 10:15:48;;;;;;;5.03;1.40;;;4.40;99.90;;;;;;4160079;28;20463;-73
2023/03/16 10:17:56;;;;;;;3.17;1.20;;;4.40;99.90;;;;;;4140011;28;20444;-73
2023/03/16 10:20:03;;;;;;;6.40;1.63;;;4.50;99.90;;;;;;4155677;28;21059;-73
2023/03/16 10:22:17;;;;;;;5.43;1.93;;;4.70;99.90;;;;;;4139909;28;21203;-73
2023/03/16 10:24:38;;;;;;;2.50;1.20;;;4.70;99.90;;;;;;4144040;28;20455;-75
2023/03/16 10:26:45;;;;;;;7.60;2.63;;;4.80;99.90;;;;;;4139929;28;21104;-74
2023/03/16 10:28:47;;;;;;;7.13;2.00;;;4.80;99.90;;;;;;4142925;28;20449;-73
2023/03/16 10:30:50;;;;;;;3.43;1.50;;;4.90;99.90;;;;;;4136711;28;20545;-74
2023/03/16 10:32:52;;;;;;;4.87;1.57;;;5.00;99.90;;;;;;4142095;28;21010;-74
2023/03/16 10:35:00;;;;;;;8.20;1.47;;;5.10;99.90;;;;;;4140953;28;21088;-71
2023/03/16 10:37:07;;;;;;;3.37;1.27;;;5.10;99.90;;;;;;4140488;28;21114;-71
2023/03/16 10:39:12;;;;;;;5.80;1.30;;;5.30;99.90;;;;;;4139650;28;20466;-71
2023/03/16 10:41:35;;;;;;;4.53;1.30;;;5.30;99.90;;;;;;4141044;28;20482;-74
2023/03/16 10:43:37;;;;;;;6.40;2.10;;;5.40;99.90;;;;;;4143445;28;20457;-74
2023/03/16 10:45:39;;;;;;;4.80;1.77;;;5.50;99.90;;;;;;4139925;28;20898;-74